Caballo, New Mexico
Current Conditions -  °F | °C
As of 9:53 PM on Saturday 25 Oct 2014 (Local Time) from KTCS Reporting Station
Clear Clear  
Wind Chill: 65°   Ceiling: Unl
Heat Index: 65°   Visibility: 10mi
Dew Point: 43°   Wind: 5mph
Humidity: 45%   Direction: 200°SSW
Pressure: 30.17"   Gusts: NA
Location:  32.97°N, 107.31°W
Report Text: KTCS 260353Z AUTO 20004KT 10SM CLR 18/06 A3017 RMK AO2 SLP151 T01830061 TSNO
Loading
Personal Weather Stations






























Interactive Weather Map
Tropical Storm Tracking
New forecast layout! Learn more

10-Day Weather Forecast

Advertisements
Track Severe Weather on mobile